Herkenbosch, Netherlands
Current Conditions -  °F | °C
As of 1:20 PM on Saturday 20 Dec 2014 (Local Time) from EDLN Reporting Station
Light Rain Light Rain  
Wind Chill: 37°   Ceiling: 1800
Heat Index: 45°   Visibility: 4mi
Dew Point: 39°   Wind: 18mph
Humidity: 81%   Direction: 260°W
Pressure: 30.09"   Gusts: NA
Location:  51.15°N, 6.06°E
Report Text: EDLN 201220Z 26016KT 210V310 6000 -RA BKN018 07/04 Q1019
Loading
Personal Weather Stations






























Interactive Weather Map New forecast layout! Learn more

10-Day Weather Forecast

Advertisements
Track Severe Weather on mobile